Flight Track Log - Related Links

Times and Time Zones

All times are in EDT time to prevent confusion due to time zone crossing. See the N500CD flight status page for this flight to view local times or setup timezone preferences in your user account.

Time Position Orientation Groundspeed Altitude Reporting Facility
EDT Latitude Longitude Course Direction KTS MPH feet Rate Location/Type
Mon 08:13:13 AM 29.6867 -82.2567 13° North 141 162 600  Level Jacksonville Center
Mon 08:14:26 AM 29.7344 -82.2444 13° North 184 212 3,000 1,939 Climbing Jacksonville Center
Mon 08:14:52 AM 29.7533 -82.2467 354° North 177 204 3,800 2,164 Climbing Jacksonville Center
Mon 08:15:27 AM 29.7681 -82.2778 299° West 173 199 5,200 2,300 Climbing Jacksonville Center
Mon 08:15:52 AM 29.7744 -82.2967 291° West 187 215 6,100 2,047 Climbing Jacksonville Center
Mon 08:16:52 AM 29.7811 -82.3494 278° West 176 203 8,100 1,900 Climbing Jacksonville Center
Mon 08:17:52 AM 29.7917 -82.3994 284° West 176 203 9,900 1,700 Climbing Jacksonville Center
Mon 08:18:52 AM 29.8003 -82.4569 280° West 176 203 11,500 1,500 Climbing Jacksonville Center
Mon 08:19:52 AM 29.8086 -82.5144 279° West 182 209 12,900 1,350 Climbing Jacksonville Center
Mon 08:20:52 AM 29.8194 -82.5742 282° West 182 209 14,200 1,250 Climbing Jacksonville Center
Mon 08:21:52 AM 29.8300 -82.6364 281° West 189 217 15,400 1,300 Climbing Jacksonville Center
Mon 08:22:52 AM 29.8447 -82.7033 284° West 204 235 16,800 1,250 Climbing Jacksonville Center
Mon 08:23:52 AM 29.8531 -82.7681 278° West 204 235 17,900 1,150 Climbing Jacksonville Center
Mon 08:24:52 AM 29.8636 -82.8303 281° West 204 235 19,100 1,200 Climbing Jacksonville Center
Mon 08:25:52 AM 29.8719 -82.8925 279° West 204 235 20,300 1,150 Climbing Jacksonville Center
Mon 08:26:52 AM 29.8822 -82.9572 280° West 199 229 21,400 1,150 Climbing Jacksonville Center
Mon 08:27:52 AM 29.8928 -83.0194 281° West 199 229 22,600 1,100 Climbing Jacksonville Center
Mon 08:28:52 AM 29.9053 -83.0867 282° West 204 235 23,600 1,050 Climbing Jacksonville Center
Mon 08:29:52 AM 29.9156 -83.1539 280° West 209 241 24,700 1,150 Climbing Jacksonville Center
Mon 08:30:52 AM 29.9258 -83.2186 280° West 209 241 25,900 1,100 Climbing Jacksonville Center
Mon 08:31:52 AM 29.9361 -83.2833 280° West 209 241 26,900 950 Climbing Jacksonville Center
Mon 08:32:52 AM 29.9464 -83.3506 280° West 209 241 27,800 550 Climbing Jacksonville Center
Mon 08:33:52 AM 29.9586 -83.4247 281° West 223 257 28,000 100 Climbing Jacksonville Center
Mon 08:34:52 AM 29.9706 -83.5017 280° West 250 288 28,000  Level Jacksonville Center
Mon 08:35:52 AM 29.9847 -83.5928 280° West 268 308 28,000 600 Level Jacksonville Center
Mon 08:36:52 AM 30.0011 -83.6817 282° West 282 325 29,200 1,400 Climbing Jacksonville Center
Mon 08:37:52 AM 30.0108 -83.7586 278° West 270 311 30,800 1,350 Climbing Jacksonville Center
Mon 08:38:52 AM 30.0250 -83.8283 283° West 241 277 31,900 1,000 Climbing Jacksonville Center
Mon 08:39:52 AM 30.0331 -83.8931 278° West 220 253 32,800 850 Climbing Jacksonville Center
Mon 08:40:52 AM 30.0428 -83.9581 280° West 214 246 33,600 800 Climbing Jacksonville Center
Mon 08:41:52 AM 30.0528 -84.0228 280° West 214 246 34,400 750 Climbing Jacksonville Center
Mon 08:42:52 AM 30.0625 -84.0853 280° West 209 241 35,100 750 Climbing Jacksonville Center
Mon 08:43:52 AM 30.0725 -84.1503 280° West 203 234 35,900 450 Climbing Jacksonville Center
Mon 08:44:52 AM 30.0822 -84.2128 280° West 198 228 36,000 50 Climbing Jacksonville Center
Mon 08:45:52 AM 30.0961 -84.2875 282° West 215 247 36,000  Level Jacksonville Center
Mon 08:46:52 AM 30.1056 -84.3669 278° West 238 274 36,000  Level Jacksonville Center
Mon 08:47:52 AM 30.1172 -84.4486 279° West 252 290 36,000  Level Jacksonville Center
Mon 08:48:52 AM 30.1306 -84.5378 280° West 268 308 36,000  Level Jacksonville Center
Mon 08:49:52 AM 30.1461 -84.6244 282° West 274 315 36,000  Level Jacksonville Center
Mon 08:50:52 AM 30.1575 -84.7086 279° West 274 315 36,000  Level Jacksonville Center
Mon 08:51:52 AM 30.1708 -84.7978 280° West 279 321 36,000  Level Jacksonville Center
Mon 08:52:52 AM 30.1842 -84.8847 280° West 279 321 36,000  Level Jacksonville Center
Mon 08:53:52 AM 30.1972 -84.9739 280° West 279 321 36,000  Level Jacksonville Center
Mon 08:54:52 AM 30.1981 -85.0603 271° West 274 315 36,000  Level Jacksonville Center
Mon 08:55:52 AM 30.1964 -85.1517 269° West 274 315 36,000  Level Jacksonville Center
Mon 08:56:52 AM 30.1969 -85.2431 270° West 274 315 36,000  Level Jacksonville Center
Mon 08:57:52 AM 30.1953 -85.3319 269° West 279 321 36,000  Level Jacksonville Center
Mon 08:58:52 AM 30.1914 -85.4231 267° West 279 321 36,000  Level Jacksonville Center
Mon 08:59:52 AM 30.1872 -85.5214 267° West 297 342 36,000  Level Jacksonville Center
Mon 09:00:52 AM 30.1897 -85.6056 272° West 288 331 36,000  Level Jacksonville Center
Mon 09:01:52 AM 30.1878 -85.6944 269° West 281 323 36,000  Level Jacksonville Center
Mon 09:02:52 AM 30.1897 -85.7858 271° West 281 323 36,000  Level Jacksonville Center
Mon 09:03:52 AM 30.1875 -85.8842 269° West 281 323 36,000  Level Jacksonville Center
Mon 09:04:52 AM 30.1856 -85.9708 269° West 276 318 36,000  Level Jacksonville Center
Mon 09:05:52 AM 30.1833 -86.0594 268° West 276 318 36,000  Level Jacksonville Center
Mon 09:06:52 AM 30.1811 -86.1508 268° West 276 318 36,000  Level Jacksonville Center
Mon 09:07:52 AM 30.1786 -86.2397 268° West 271 312 36,000 -50 Level Jacksonville Center
Mon 09:08:52 AM 30.1806 -86.3286 271° West 276 318 35,900  Descending Jacksonville Center
Mon 09:09:52 AM 30.2011 -86.4158 285° West 281 323 36,000 50 Climbing Jacksonville Center
Mon 09:10:52 AM 30.2217 -86.5056 285° West 281 323 36,000  Level Jacksonville Center
Mon 09:11:52 AM 30.2275 -86.5947 274° West 281 323 36,000  Level Jacksonville Center
Mon 09:12:52 AM 30.2353 -86.6839 276° West 281 323 36,000  Level Jacksonville Center
Mon 09:13:52 AM 30.2450 -86.7756 277° West 281 323 36,000  Level Jacksonville Center
Mon 09:14:52 AM 30.2506 -86.8647 274° West 281 323 36,000 -100 Level Jacksonville Center
Mon 09:15:52 AM 30.2567 -86.9372 276° West 286 329 35,800 -600 Descending Jacksonville Center
Mon 09:16:52 AM 30.2639 -87.0383 275° West 292 336 34,800 -950 Descending Jacksonville Center
Mon 09:17:52 AM 30.2708 -87.1397 275° West 303 349 33,900 -1,050 Descending Jacksonville Center
Mon 09:18:52 AM 30.2778 -87.2433 274° West 317 365 32,700 -950 Descending Jacksonville Center
Mon 09:19:52 AM 30.2869 -87.3447 276° West 322 371 32,000 -239 Descending Jacksonville Center
Mon 09:21:48 AM 30.3022 -87.5194 276° West 275 316 32,000  Level Houston Center
Mon 09:22:50 AM 30.3056 -87.6050 273° West 267 307 32,000  Level Houston Center
Mon 09:23:51 AM 30.3125 -87.6864 276° West 255 293 32,000  Level Houston Center
Mon 09:24:53 AM 30.3194 -87.7708 275° West 261 300 32,000  Level Houston Center
Mon 09:25:55 AM 30.3253 -87.8578 274° West 270 311 32,000  Level Houston Center
Mon 09:26:56 AM 30.3336 -87.9678 275° West 284 327 32,000  Level Houston Center
Mon 09:27:58 AM 30.3389 -88.0614 274° West 290 334 32,000  Level Houston Center
Mon 09:29:00 AM 30.3456 -88.1556 275° West 292 336 32,000  Level Houston Center
Mon 09:30:01 AM 30.3522 -88.2506 275° West 295 339 32,000  Level Houston Center
Mon 09:31:03 AM 30.3586 -88.3447 275° West 293 337 32,000  Level Houston Center
Mon 09:32:05 AM 30.3642 -88.4397 274° West 294 338 32,000 -537 Level Houston Center
Mon 09:33:06 AM 30.3717 -88.5389 275° West 306 352 30,900 -1,122 Descending Houston Center
Mon 09:34:08 AM 30.3783 -88.6450 274° West 326 375 29,700 -1,403 Descending Houston Center
Mon 09:35:10 AM 30.3867 -88.7703 274° West 325 374 28,000 -1,707 Descending Houston Center
Mon 09:36:11 AM 30.3933 -88.8731 274° West 321 369 26,200 -1,756 Descending Houston Center
Mon 09:37:13 AM 30.4008 -88.9856 274° West 336 387 24,400 -1,839 Descending Houston Center
Mon 09:38:15 AM 30.3989 -89.0975 269° West 350 403 22,400 -1,887 Descending Houston Center
Mon 09:39:17 AM 30.3611 -89.2036 248° West 356 410 20,500 -1,805 Descending Houston Center
Mon 09:40:18 AM 30.3214 -89.3056 246° West 349 402 18,700 -1,846 Descending Houston Center
Mon 09:40:48 AM 30.2994 -89.3692 248° West 352 405 17,700 -1,964 Descending Houston Center
Mon 09:41:13 AM 30.2842 -89.4108 247° West 357 411 16,900 -1,313 Descending Houston Center
Mon 09:41:20 AM 30.2819 -89.4122 208° Southwest 358 412 17,000 -2,400 Climbing Houston Center
Mon 09:42:13 AM 30.2525 -89.5183 252° West 357 411 14,500 -2,323 Descending Houston Center
Mon 09:42:22 AM 30.2525 -89.5192 270° West 347 399 14,600 -2,328 Climbing Houston Center
Mon 09:43:20 AM 30.2506 -89.6386 269° West 319 367 11,900 -2,323 Descending Houston Center
Mon 09:43:24 AM 30.2506 -89.6247 90° East 327 376 12,200 -2,656 Climbing Houston Center
Mon 09:44:21 AM 30.2475 -89.7328 268° West 286 329 9,200 -2,754 Descending Houston Center
Mon 09:44:25 AM 30.2472 -89.7233 92° East 307 353 9,400 -2,636 Climbing Houston Center
Mon 09:45:27 AM 30.2400 -89.8111 265° West 275 316 6,300 -3,282 Descending Houston Center
Mon 09:46:22 AM 30.2133 -89.8956 250° West 259 298 3,000 -3,484 Descending Houston Center
Mon 09:46:29 AM 30.2092 -89.9069 247° West 266 306 2,700 -984 Descending Houston Center
Mon 09:47:23 AM 30.1908 -89.9711 252° West 226 260 2,000 -774 Descending Houston Center
Mon 09:47:31 AM 30.1897 -89.9769 258° West 247 284 1,900 -444 Descending Houston Center
Mon 09:48:17 AM 30.1589 -90.0158 227° Southwest 214 246 1,600 -295 Descending Houston Center
Mon 09:48:32 AM 30.1475 -90.0219 205° Southwest 225 259 1,600 -411 Level Houston Center
Mon 09:49:30 AM 30.1069 -90.0322 192° South 127 146 1,100 -484 Descending Houston Center
Mon 09:49:34 AM 30.1069 -90.0317 90° East 172 198 1,100 -689 Level Houston Center
Mon 09:50:31 AM 30.0736 -90.0314 180° South 100 115 400 -774 Descending Houston Center
Mon 09:50:36 AM 30.0747 -90.0308 23° Northeast 137 158 300 -1,200 Descending Houston Center
Mon 09:52:00 AM 30.0424 -90.0283 245° Southwest  Level Estimated
Mon 09:59:00 AM 30.0424 -90.0283 245° Southwest  Level Estimated
Mon 10:00:00 AM 30.0424 -90.0283 245° Southwest  Level Estimated
Mon 10:01:00 AM 30.0424 -90.0283 245° Southwest  Level Estimated

Login

Don't have an account? Register now (free) for customized features, flight alerts, and more!